Time;durP1;ratioP1;P1;durP2;ratioP2;P2;SDS_P1;SDS_P2;PMS_P1;PMS_P2;Temp;Humidity;BMP_temperature;BMP_pressure;BME280_temperature;BME280_humidity;BME280_pressure;Samples;Min_cycle;Max_cycle;Signal;HPM_P1;HPM_P2
2021/04/02 00:08:17;;;;;;;5.10;0.60;;;12.80;99.90;;;;;;20799644;28;20266;-74
2021/04/02 00:18:20;;;;;;;2.20;0.83;;;12.70;99.90;;;;;;20744315;28;20656;-71
2021/04/02 00:28:24;;;;;;;0.70;0.60;;;12.70;99.90;;;;;;20741734;28;20458;-71
2021/04/02 00:38:27;;;;;;;0.47;0.43;;;13.10;99.90;;;;;;20738725;28;20203;-72
2021/04/02 00:48:31;;;;;;;1.03;0.60;;;13.10;99.90;;;;;;20743167;28;20326;-72
2021/04/02 00:58:35;;;;;;;0.20;0.20;;;13.30;99.90;;;;;;20734083;28;20195;-72
2021/04/02 01:08:39;;;;;;;0.57;0.57;;;13.80;99.90;;;;;;20736608;28;20318;-73
2021/04/02 01:18:47;;;;;;;0.63;0.50;;;14.20;99.90;;;;;;20738046;28;20234;-72
2021/04/02 01:28:57;;;;;;;0.83;0.57;;;14.10;99.90;;;;;;20739324;28;20310;-71
2021/04/02 01:39:00;;;;;;;3.10;1.30;;;13.90;99.90;;;;;;20738320;28;20225;-71
2021/04/02 01:49:06;;;;;;;0.20;0.20;;;13.60;99.90;;;;;;20737727;28;20329;-71
2021/04/02 01:59:09;;;;;;;2.27;0.63;;;13.50;99.90;;;;;;20737912;28;20206;-72
2021/04/02 02:09:15;;;;;;;1.23;0.60;;;14.30;99.90;;;;;;20735654;28;20243;-70
2021/04/02 02:19:21;;;;;;;0.40;0.27;;;14.70;99.90;;;;;;20733144;28;20226;-71
2021/04/02 02:29:24;;;;;;;0.77;0.60;;;14.20;99.90;;;;;;20733954;28;20700;-72
2021/04/02 02:39:27;;;;;;;0.53;0.50;;;14.50;99.90;;;;;;20733661;28;21083;-71
2021/04/02 02:49:31;;;;;;;0.40;0.33;;;14.20;99.90;;;;;;20715704;28;20285;-71
2021/04/02 02:59:35;;;;;;;0.40;0.40;;;13.80;99.90;;;;;;20733957;28;20281;-72
2021/04/02 03:09:43;;;;;;;0.60;0.60;;;13.70;99.90;;;;;;20724250;28;20699;-70
2021/04/02 03:19:46;;;;;;;0.30;0.30;;;13.60;99.90;;;;;;20731793;28;20559;-71
2021/04/02 03:29:50;;;;;;;0.43;0.40;;;13.10;99.90;;;;;;20731720;28;20313;-72
2021/04/02 03:39:54;;;;;;;7.70;1.33;;;12.30;99.90;;;;;;20740383;28;20277;-72
2021/04/02 03:50:00;;;;;;;0.20;0.20;;;12.10;99.90;;;;;;20730066;28;20253;-71
2021/04/02 04:00:10;;;;;;;0.63;0.40;;;12.00;99.90;;;;;;20737671;28;20696;-71
2021/04/02 04:10:16;;;;;;;0.30;0.23;;;12.10;99.90;;;;;;20747681;28;20238;-71
2021/04/02 04:20:20;;;;;;;1.43;0.67;;;11.60;99.90;;;;;;20743908;28;20199;-71
2021/04/02 04:30:25;;;;;;;0.20;0.10;;;11.50;99.90;;;;;;20723111;28;20237;-71
2021/04/02 04:40:30;;;;;;;1.10;0.47;;;11.60;99.90;;;;;;20739278;28;20286;-72
2021/04/02 04:50:33;;;;;;;1.10;1.00;;;11.80;99.90;;;;;;20736031;28;20305;-72
2021/04/02 05:00:37;;;;;;;2.67;0.87;;;11.60;99.90;;;;;;20741727;28;20586;-71
2021/04/02 05:10:43;;;;;;;0.50;0.50;;;11.50;99.90;;;;;;20740418;28;20258;-73
2021/04/02 05:20:47;;;;;;;0.60;0.40;;;11.60;99.90;;;;;;20740735;28;20203;-72
2021/04/02 05:30:51;;;;;;;0.53;0.53;;;11.20;99.90;;;;;;20739689;28;20309;-72
2021/04/02 05:40:53;;;;;;;0.63;0.63;;;11.30;99.90;;;;;;20739504;28;20672;-72
2021/04/02 05:50:57;;;;;;;0.33;0.30;;;11.80;99.90;;;;;;20737974;28;20249;-71
2021/04/02 06:01:00;;;;;;;1.07;1.07;;;11.80;99.90;;;;;;20749766;28;20217;-72
2021/04/02 06:11:03;;;;;;;6.67;1.03;;;11.80;99.90;;;;;;20818156;28;20233;-71
2021/04/02 06:21:08;;;;;;;8.33;0.83;;;12.00;99.90;;;;;;20817212;28;20671;-72
2021/04/02 06:31:13;;;;;;;0.40;0.40;;;12.50;99.90;;;;;;20816870;28;20308;-72
2021/04/02 06:41:18;;;;;;;2.63;0.87;;;12.30;99.90;;;;;;20815882;28;20218;-71
2021/04/02 06:51:24;;;;;;;0.43;0.43;;;12.80;99.90;;;;;;20815063;28;20234;-72
2021/04/02 07:01:29;;;;;;;0.80;0.80;;;13.40;99.90;;;;;;20796904;28;20733;-72
2021/04/02 07:11:33;;;;;;;0.57;0.37;;;14.30;99.90;;;;;;20812926;28;20357;-72
2021/04/02 07:21:36;;;;;;;1.87;0.70;;;15.20;99.90;;;;;;20813690;28;20551;-70
2021/04/02 07:31:40;;;;;;;21.03;1.10;;;15.50;99.90;;;;;;20812373;28;20304;-72
2021/04/02 07:41:47;;;;;;;1.90;1.40;;;16.00;99.90;;;;;;20811776;28;20249;-72
2021/04/02 07:51:51;;;;;;;0.90;0.77;;;16.40;99.90;;;;;;20812393;28;20320;-71
2021/04/02 08:01:57;;;;;;;1.30;1.20;;;16.60;99.90;;;;;;20811844;28;20308;-69
2021/04/02 08:12:02;;;;;;;0.47;0.47;;;16.90;99.90;;;;;;20812275;28;20222;-71
2021/04/02 08:22:07;;;;;;;1.50;1.23;;;17.30;99.90;;;;;;20814006;28;20186;-69
2021/04/02 08:32:12;;;;;;;0.93;0.83;;;17.30;99.90;;;;;;20826077;28;20313;-71
2021/04/02 08:42:15;;;;;;;0.70;0.67;;;17.30;99.90;;;;;;20824102;28;20226;-71
2021/04/02 08:52:20;;;;;;;0.90;0.77;;;17.60;99.90;;;;;;20805117;28;20616;-72
2021/04/02 09:02:28;;;;;;;0.70;0.60;;;17.60;99.90;;;;;;20823585;28;20230;-70
2021/04/02 09:12:35;;;;;;;1.57;1.47;;;18.00;99.90;;;;;;20821167;28;20620;-71
2021/04/02 09:22:38;;;;;;;0.57;0.57;;;18.50;99.90;;;;;;20820288;28;20205;-70
2021/04/02 09:32:41;;;;;;;0.50;0.50;;;18.70;99.90;;;;;;20817212;28;20222;-71
2021/04/02 09:42:48;;;;;;;0.60;0.50;;;19.00;99.90;;;;;;20817288;28;20202;-70
2021/04/02 09:52:52;;;;;;;0.83;0.73;;;19.20;99.90;;;;;;20815019;28;20750;-70
2021/04/02 10:02:55;;;;;;;1.43;1.33;;;19.40;99.90;;;;;;20794463;28;20222;-69
2021/04/02 10:12:58;;;;;;;2.57;1.00;;;19.30;99.90;;;;;;20750748;28;20227;-72
2021/04/02 10:23:01;;;;;;;0.50;0.50;;;19.90;99.90;;;;;;20732572;28;20648;-70
2021/04/02 10:33:04;;;;;;;2.13;0.97;;;19.70;99.90;;;;;;20714201;28;20325;-70
2021/04/02 10:43:07;;;;;;;0.60;0.60;;;20.30;99.90;;;;;;20731752;28;20282;-68
2021/04/02 10:53:11;;;;;;;1.87;1.53;;;20.70;99.90;;;;;;20724960;28;20531;-69
2021/04/02 11:03:14;;;;;;;1.13;0.67;;;21.30;99.90;;;;;;20752918;28;20226;-70
2021/04/02 11:13:17;;;;;;;0.60;0.50;;;21.80;99.90;;;;;;20809746;28;20640;-69
2021/04/02 11:23:20;;;;;;;10.93;2.33;;;22.40;99.90;;;;;;20811292;28;20217;-68
2021/04/02 11:33:23;;;;;;;2.00;1.30;;;22.50;99.90;;;;;;20794042;28;20226;-69
2021/04/02 11:43:26;;;;;;;1.33;1.23;;;22.70;99.90;;;;;;20813174;28;20256;-69
2021/04/02 11:53:30;;;;;;;2.53;1.00;;;22.70;99.90;;;;;;20809483;28;20221;-70
2021/04/02 12:03:34;;;;;;;1.53;0.90;;;23.70;99.90;;;;;;20824383;28;20691;-67
2021/04/02 12:13:37;;;;;;;1.30;0.80;;;24.00;99.90;;;;;;20827538;28;20236;-70
2021/04/02 12:23:40;;;;;;;1.15;0.60;;;24.70;99.90;;;;;;20737175;28;20719;-69
2021/04/02 12:33:43;;;;;;;0.50;0.35;;;25.10;99.90;;;;;;20704662;28;20226;-68
2021/04/02 12:43:46;;;;;;;0.30;0.20;;;25.40;99.90;;;;;;20731059;28;20202;-67
2021/04/02 12:53:50;;;;;;;2.08;1.40;;;25.20;99.90;;;;;;20719320;28;20416;-69
2021/04/02 13:03:52;;;;;;;2.15;1.35;;;25.70;99.90;;;;;;20753270;28;20337;-70
2021/04/02 13:13:56;;;;;;;1.25;1.10;;;25.80;99.90;;;;;;20720893;28;20313;-70
2021/04/02 13:23:58;;;;;;;2.15;1.48;;;26.20;99.90;;;;;;20737520;28;20225;-71
2021/04/02 13:34:02;;;;;;;1.48;1.02;;;26.60;99.90;;;;;;20738543;28;20258;-71
2021/04/02 13:44:05;;;;;;;2.85;1.17;;;26.60;99.90;;;;;;20736836;28;20230;-70
2021/04/02 13:54:09;;;;;;;5.53;1.42;;;27.70;99.90;;;;;;20721759;28;20317;-71
2021/04/02 14:04:11;;;;;;;0.77;0.77;;;27.80;99.90;;;;;;20714470;28;20219;-71
2021/04/02 14:24:25;;;;;;;1.98;0.65;;;28.10;99.90;;;;;;20574408;23;20224;-73
2021/04/02 14:34:27;;;;;;;0.70;0.57;;;28.40;99.90;;;;;;20628905;28;20232;-70
2021/04/02 14:44:30;;;;;;;1.23;0.65;;;28.70;99.90;;;;;;20650390;28;20302;-73
2021/04/02 14:54:37;;;;;;;1.38;1.25;;;28.60;99.90;;;;;;20650579;28;20582;-73
2021/04/02 15:04:41;;;;;;;1.90;1.48;;;29.40;99.90;;;;;;20639396;28;20712;-71
2021/04/02 15:14:44;;;;;;;1.88;1.25;;;29.00;99.90;;;;;;20627567;28;20517;-71
2021/04/02 15:24:47;;;;;;;1.10;0.88;;;29.00;99.90;;;;;;20646967;28;20282;-71
2021/04/02 15:34:50;;;;;;;0.57;0.50;;;28.80;99.90;;;;;;20655007;28;20546;-72
2021/04/02 15:44:53;;;;;;;2.08;1.42;;;28.80;99.90;;;;;;20659284;28;20215;-71
2021/04/02 15:54:56;;;;;;;1.90;1.20;;;28.10;99.90;;;;;;20678306;28;20219;-72
2021/04/02 16:05:00;;;;;;;0.93;0.68;;;27.20;99.90;;;;;;20666575;28;20640;-71
2021/04/02 16:15:02;;;;;;;0.40;0.40;;;25.40;99.90;;;;;;20664075;28;20262;-74
2021/04/02 16:25:08;;;;;;;0.60;0.60;;;23.90;99.90;;;;;;20627286;28;20242;-75
2021/04/02 16:35:11;;;;;;;1.30;0.77;;;23.20;99.90;;;;;;20654942;28;20293;-73
2021/04/02 16:45:15;;;;;;;0.93;0.83;;;22.50;99.90;;;;;;20661126;28;20230;-73
2021/04/02 16:55:18;;;;;;;0.83;0.80;;;22.30;99.90;;;;;;20660596;28;20219;-74
2021/04/02 17:05:22;;;;;;;2.33;1.10;;;22.50;99.90;;;;;;20659139;28;20223;-73
2021/04/02 17:15:25;;;;;;;1.27;0.80;;;22.50;99.90;;;;;;20658163;28;20223;-73
2021/04/02 17:25:28;;;;;;;0.90;0.67;;;21.70;99.90;;;;;;20658100;28;20302;-73
2021/04/02 17:35:31;;;;;;;0.80;0.67;;;21.40;99.90;;;;;;20658254;28;20359;-72
2021/04/02 17:45:34;;;;;;;1.13;1.03;;;21.40;99.90;;;;;;20653786;28;20259;-75
2021/04/02 17:55:37;;;;;;;1.33;0.80;;;19.90;99.90;;;;;;20651924;28;20258;-74
2021/04/02 18:05:44;;;;;;;0.77;0.50;;;19.60;99.90;;;;;;20677081;28;20206;-73
2021/04/02 18:15:47;;;;;;;8.40;1.00;;;19.10;99.90;;;;;;20648673;28;20267;-75
2021/04/02 18:25:51;;;;;;;2.00;0.70;;;18.80;99.90;;;;;;20648407;28;20630;-74
2021/04/02 18:46:11;;;;;;;1.70;0.87;;;18.00;99.90;;;;;;21542410;22;20690;-74
2021/04/02 18:56:14;;;;;;;1.10;0.93;;;17.90;99.90;;;;;;20682474;28;20207;-73
2021/04/02 19:06:19;;;;;;;0.67;0.60;;;17.90;99.90;;;;;;20727502;28;20222;-72
2021/04/02 19:16:22;;;;;;;2.10;1.23;;;17.70;99.90;;;;;;20726798;28;20270;-73
2021/04/02 19:26:25;;;;;;;2.43;1.30;;;17.90;99.90;;;;;;20728625;28;20215;-73
2021/04/02 19:36:28;;;;;;;0.80;0.67;;;17.70;99.90;;;;;;20728254;28;20209;-71
2021/04/02 19:46:32;;;;;;;7.57;1.13;;;17.70;99.90;;;;;;20728276;28;20628;-71
2021/04/02 19:56:34;;;;;;;6.60;1.10;;;17.60;99.90;;;;;;20728436;28;20203;-73
2021/04/02 20:06:38;;;;;;;4.93;2.17;;;17.60;99.90;;;;;;20728040;28;20225;-73
2021/04/02 20:16:41;;;;;;;14.57;3.40;;;17.70;99.90;;;;;;20728872;28;20203;-74
2021/04/02 20:26:45;;;;;;;1.27;1.17;;;17.30;99.90;;;;;;20741868;28;20234;-73
2021/04/02 20:36:49;;;;;;;1.90;1.13;;;17.10;99.90;;;;;;20724375;28;20727;-74
2021/04/02 20:46:53;;;;;;;2.87;1.13;;;17.30;99.90;;;;;;20741539;28;20226;-73
2021/04/02 20:56:55;;;;;;;6.67;1.93;;;17.30;99.90;;;;;;20741356;28;20205;-74
2021/04/02 21:07:00;;;;;;;2.37;1.10;;;17.20;99.90;;;;;;20793463;28;20730;-73
2021/04/02 21:17:03;;;;;;;3.13;1.60;;;17.10;99.90;;;;;;20758801;28;20313;-71
2021/04/02 21:27:08;;;;;;;7.00;1.80;;;16.80;99.90;;;;;;20727233;28;20366;-74
2021/04/02 21:37:10;;;;;;;4.63;1.03;;;16.90;99.90;;;;;;20731940;28;20199;-75
2021/04/02 21:47:14;;;;;;;0.50;0.37;;;16.70;99.90;;;;;;20731008;28;20294;-76
2021/04/02 21:57:17;;;;;;;0.50;0.50;;;16.30;99.90;;;;;;20731932;28;20245;-74
2021/04/02 22:07:20;;;;;;;3.63;0.80;;;16.20;99.90;;;;;;20733666;28;20230;-75
2021/04/02 22:17:23;;;;;;;0.97;0.60;;;16.00;99.90;;;;;;20733094;28;20655;-76
2021/04/02 22:27:26;;;;;;;2.20;1.57;;;16.20;99.90;;;;;;20718582;28;20770;-75
2021/04/02 22:37:29;;;;;;;1.37;1.00;;;16.40;99.90;;;;;;20714324;28;20187;-76
2021/04/02 22:47:32;;;;;;;0.77;0.77;;;16.00;99.90;;;;;;20721893;28;20317;-76
2021/04/02 22:57:35;;;;;;;0.33;0.33;;;15.80;99.90;;;;;;20759401;28;20252;-76
2021/04/02 23:07:38;;;;;;;3.30;0.43;;;15.80;99.90;;;;;;20734236;28;20313;-78
2021/04/02 23:17:42;;;;;;;0.60;0.60;;;15.60;99.90;;;;;;20710319;28;20206;-78
2021/04/02 23:27:46;;;;;;;0.57;0.37;;;15.30;99.90;;;;;;20725053;28;20731;-76
2021/04/02 23:37:49;;;;;;;0.40;0.40;;;15.30;99.90;;;;;;20728326;28;20896;-76
2021/04/02 23:47:53;;;;;;;0.73;0.50;;;15.50;99.90;;;;;;20716298;28;20707;-77
2021/04/02 23:57:58;;;;;;;2.03;0.90;;;15.70;99.90;;;;;;20753700;28;20198;-75
